createdAt,value
2018-04-18T00:00:37.517Z,10.14
2018-04-18T00:03:05.155Z,10.13
2018-04-18T00:05:32.790Z,10.12
2018-04-18T00:08:00.402Z,10.12
2018-04-18T00:10:28.058Z,10.10
2018-04-18T00:12:55.695Z,10.08
2018-04-18T00:15:23.307Z,10.03
2018-04-18T00:17:50.935Z,10.00
2018-04-18T00:20:18.537Z,9.96
2018-04-18T00:22:46.166Z,9.91
2018-04-18T00:25:13.770Z,9.84
2018-04-18T00:27:41.398Z,9.79
2018-04-18T00:30:09.027Z,9.76
2018-04-18T00:32:36.661Z,9.74
2018-04-18T00:35:04.269Z,9.70
2018-04-18T00:37:31.895Z,9.68
2018-04-18T00:39:59.510Z,9.64
2018-04-18T00:42:27.139Z,9.60
2018-04-18T00:44:54.743Z,9.57
2018-04-18T00:47:22.376Z,9.55
2018-04-18T00:49:49.978Z,9.52
2018-04-18T00:52:17.609Z,9.48
2018-04-18T00:54:45.252Z,9.45
2018-04-18T00:57:12.895Z,9.43
2018-04-18T00:59:40.506Z,9.40
2018-04-18T01:02:08.236Z,9.37
2018-04-18T01:04:35.894Z,9.34
2018-04-18T01:07:03.529Z,9.29
2018-04-18T01:09:31.137Z,9.26
2018-04-18T01:11:58.779Z,9.21
2018-04-18T01:14:26.419Z,9.18
2018-04-18T01:16:54.107Z,9.15
2018-04-18T01:19:21.715Z,9.12
2018-04-18T01:21:49.443Z,9.08
2018-04-18T01:24:17.103Z,9.05
2018-04-18T01:26:44.716Z,9.02
2018-04-18T01:29:12.350Z,8.98
2018-04-18T01:31:39.982Z,8.94
2018-04-18T01:34:07.650Z,8.90
2018-04-18T01:36:35.269Z,8.84
2018-04-18T01:39:02.903Z,8.80
2018-04-18T01:41:30.535Z,8.76
2018-04-18T01:43:58.171Z,8.73
2018-04-18T01:46:25.788Z,8.71
2018-04-18T01:49:05.326Z,8.69
2018-04-18T01:51:32.930Z,8.68
2018-04-18T01:54:00.617Z,8.66
2018-04-18T01:56:28.223Z,8.64
2018-04-18T01:58:55.860Z,8.63
2018-04-18T02:01:23.515Z,8.63
2018-04-18T02:03:51.151Z,8.60
2018-04-18T02:06:18.762Z,8.59
2018-04-18T02:08:46.403Z,8.59
2018-04-18T02:11:14.060Z,8.59
2018-04-18T02:13:41.732Z,8.58
2018-04-18T02:16:09.338Z,8.55
2018-04-18T02:18:36.967Z,8.53
2018-04-18T02:21:04.603Z,8.51
2018-04-18T02:23:32.262Z,8.49
2018-04-18T02:25:59.931Z,8.48
2018-04-18T02:28:27.563Z,8.47
2018-04-18T02:30:55.188Z,8.44
2018-04-18T02:33:22.837Z,8.44
2018-04-18T02:35:50.455Z,8.43
2018-04-18T02:38:18.124Z,8.42
2018-04-18T02:40:45.803Z,8.39
2018-04-18T02:43:13.460Z,8.38
2018-04-18T02:45:41.070Z,8.36
2018-04-18T02:48:08.680Z,8.34
2018-04-18T02:50:36.311Z,8.33
2018-04-18T02:53:04.006Z,8.31
2018-04-18T02:55:31.643Z,8.28
2018-04-18T02:57:59.331Z,8.25
2018-04-18T03:00:26.958Z,8.21
2018-04-18T03:02:54.663Z,8.19
2018-04-18T03:05:22.322Z,8.17
2018-04-18T03:07:49.923Z,8.13
2018-04-18T03:10:17.651Z,8.12
2018-04-18T03:12:45.264Z,8.11
2018-04-18T03:15:12.975Z,8.09
2018-04-18T03:17:40.582Z,8.09
2018-04-18T03:20:08.207Z,8.08
2018-04-18T03:22:35.814Z,8.06
2018-04-18T03:25:03.447Z,8.05
2018-04-18T03:27:31.082Z,8.03
2018-04-18T03:29:58.710Z,8.00
2018-04-18T03:32:26.335Z,7.98
2018-04-18T03:34:53.966Z,7.95
2018-04-18T03:37:21.584Z,7.94
2018-04-18T03:39:49.219Z,7.91
2018-04-18T03:42:16.859Z,7.89
2018-04-18T03:44:44.490Z,7.88
2018-04-18T03:47:12.183Z,7.86
2018-04-18T03:49:39.847Z,7.85
2018-04-18T03:52:07.446Z,7.84
2018-04-18T03:54:35.071Z,7.83
2018-04-18T03:57:02.684Z,7.83
2018-04-18T03:59:30.323Z,7.81
2018-04-18T04:01:57.959Z,7.78
2018-04-18T04:04:25.628Z,7.76
2018-04-18T04:06:53.258Z,7.72
2018-04-18T04:09:20.942Z,7.73
2018-04-18T04:11:48.577Z,7.73
2018-04-18T04:14:16.194Z,7.74
2018-04-18T04:16:55.532Z,7.75
2018-04-18T04:22:36.295Z,7.82
2018-04-18T04:25:03.958Z,7.86
2018-04-18T04:27:31.615Z,7.89
2018-04-18T04:29:59.231Z,7.91
2018-04-18T04:32:26.944Z,7.96
2018-04-18T04:34:54.546Z,7.99
2018-04-18T04:37:22.179Z,8.04
2018-04-18T04:39:49.797Z,8.09
2018-04-18T04:42:17.430Z,8.14
2018-04-18T04:44:45.069Z,8.18
2018-04-18T04:47:12.706Z,8.22
2018-04-18T04:49:40.319Z,8.28
2018-04-18T04:52:07.949Z,8.35
2018-04-18T04:54:35.560Z,8.46
2018-04-18T04:57:03.258Z,8.54
2018-04-18T04:59:30.871Z,8.62
2018-04-18T05:01:58.583Z,8.70
2018-04-18T05:04:26.252Z,8.77
2018-04-18T05:06:53.910Z,8.84
2018-04-18T05:09:21.672Z,8.91
2018-04-18T05:11:49.308Z,8.97
2018-04-18T05:14:16.924Z,9.03
2018-04-18T05:16:44.603Z,9.10
2018-04-18T05:19:12.233Z,9.16
2018-04-18T05:21:39.900Z,9.23
2018-04-18T05:24:07.530Z,9.30
2018-04-18T05:26:35.135Z,9.35
2018-04-18T05:29:02.775Z,9.41
2018-04-18T05:31:30.432Z,9.48
2018-04-18T05:33:58.094Z,9.55
2018-04-18T05:36:25.698Z,9.62
2018-04-18T05:38:53.420Z,9.70
2018-04-18T05:41:21.086Z,9.80
2018-04-18T05:43:48.847Z,9.89
2018-04-18T05:46:16.522Z,10.01
2018-04-18T05:48:44.161Z,10.12
2018-04-18T05:51:11.775Z,10.23
2018-04-18T05:53:39.415Z,10.35
2018-04-18T05:56:07.068Z,10.48
2018-04-18T05:58:34.726Z,10.60
2018-04-18T06:01:02.336Z,10.73
2018-04-18T06:03:29.986Z,10.86
2018-04-18T06:05:57.595Z,10.99
2018-04-18T06:08:25.231Z,11.13
2018-04-18T06:10:52.934Z,11.28
2018-04-18T06:13:20.594Z,11.42
2018-04-18T06:15:48.264Z,11.56
2018-04-18T06:18:15.931Z,11.70
2018-04-18T06:20:43.583Z,11.83
2018-04-18T06:23:11.218Z,11.95
2018-04-18T06:25:38.843Z,12.08
2018-04-18T06:28:06.488Z,12.21
2018-04-18T06:30:34.102Z,12.34
2018-04-18T06:33:01.896Z,12.47
2018-04-18T06:35:29.662Z,12.59
2018-04-18T06:37:57.336Z,12.72
2018-04-18T06:40:24.986Z,12.85
2018-04-18T06:42:52.590Z,12.95
2018-04-18T06:45:20.223Z,13.08
2018-04-18T06:47:47.888Z,13.21
2018-04-18T06:50:15.522Z,13.28
2018-04-18T06:52:43.211Z,13.45
2018-04-18T06:55:10.847Z,13.56
2018-04-18T06:57:38.518Z,13.67
2018-04-18T07:00:06.135Z,13.78
2018-04-18T07:02:33.746Z,13.89
2018-04-18T07:05:01.393Z,14.00
2018-04-18T07:07:29.003Z,14.10
2018-04-18T07:09:56.748Z,14.21
2018-04-18T07:12:24.358Z,14.32
2018-04-18T07:14:52.076Z,14.44
2018-04-18T07:17:19.738Z,14.55
2018-04-18T07:19:47.380Z,14.68
2018-04-18T07:22:15.055Z,14.79
2018-04-18T07:24:42.814Z,14.90
2018-04-18T07:27:11.200Z,15.05
2018-04-18T07:29:38.839Z,15.17
2018-04-18T07:32:06.480Z,15.28
2018-04-18T07:34:34.127Z,15.39
2018-04-18T07:37:01.850Z,15.51
2018-04-18T07:39:29.507Z,15.62
2018-04-18T07:41:57.123Z,15.73
2018-04-18T07:44:24.739Z,15.84
2018-04-18T07:46:52.403Z,15.95
2018-04-18T07:49:20.021Z,16.05
2018-04-18T07:51:47.654Z,16.15
2018-04-18T07:54:15.287Z,16.26
2018-04-18T07:56:42.956Z,16.36
2018-04-18T07:59:10.580Z,16.47
2018-04-18T08:01:38.267Z,16.58
2018-04-18T08:04:05.929Z,16.70
2018-04-18T08:06:33.694Z,16.82
2018-04-18T08:09:01.311Z,16.93
2018-04-18T08:11:28.952Z,17.03
2018-04-18T08:13:56.590Z,17.13
2018-04-18T08:16:24.222Z,17.23
2018-04-18T08:18:51.914Z,17.34
2018-04-18T08:21:19.671Z,17.44
2018-04-18T08:23:47.314Z,17.54
2018-04-18T08:26:15.080Z,17.63
2018-04-18T08:28:42.699Z,17.73
2018-04-18T08:31:10.338Z,17.83
2018-04-18T08:33:37.997Z,17.91
2018-04-18T08:36:05.643Z,18.00
2018-04-18T08:38:33.264Z,18.08
2018-04-18T08:41:00.908Z,18.17
2018-04-18T08:43:28.539Z,18.24
2018-04-18T08:45:56.194Z,18.32
2018-04-18T08:48:23.811Z,18.42
2018-04-18T08:50:51.455Z,18.51
2018-04-18T08:53:19.070Z,18.60
2018-04-18T08:55:46.751Z,18.70
2018-04-18T08:58:14.420Z,18.80
2018-04-18T09:00:42.066Z,18.91
2018-04-18T09:03:09.698Z,19.01
2018-04-18T09:05:37.313Z,19.13
2018-04-18T09:08:05.157Z,19.23
2018-04-18T09:10:32.780Z,19.32
2018-04-18T09:13:00.418Z,19.43
2018-04-18T09:15:28.037Z,19.53
2018-04-18T09:17:55.705Z,19.63
2018-04-18T09:20:23.376Z,19.73
2018-04-18T09:22:51.019Z,19.83
2018-04-18T09:25:18.698Z,19.93
2018-04-18T09:27:46.362Z,20.02
2018-04-18T09:30:14.027Z,20.13
2018-04-18T09:32:41.697Z,20.23
2018-04-18T09:35:09.351Z,20.33
2018-04-18T09:37:36.995Z,20.42
2018-04-18T09:40:04.610Z,20.51
2018-04-18T09:42:32.254Z,20.58
2018-04-18T09:44:59.890Z,20.68
2018-04-18T09:47:27.554Z,20.79
2018-04-18T09:49:55.172Z,20.89
2018-04-18T09:52:22.816Z,20.99
2018-04-18T09:54:50.436Z,21.08
2018-04-18T09:57:18.080Z,21.17
2018-04-18T09:59:45.699Z,21.25
2018-04-18T10:02:18.331Z,21.33
2018-04-18T10:04:46.020Z,21.41
2018-04-18T10:07:13.635Z,21.48
2018-04-18T10:09:41.339Z,21.57
2018-04-18T10:12:08.946Z,21.64
2018-04-18T10:14:36.586Z,21.73
2018-04-18T10:17:04.199Z,21.78
2018-04-18T10:19:31.847Z,21.81
2018-04-18T10:21:59.463Z,21.87
2018-04-18T10:24:27.205Z,21.91
2018-04-18T10:26:54.827Z,21.98
2018-04-18T10:29:22.539Z,22.07
2018-04-18T10:31:50.163Z,22.14
2018-04-18T10:34:17.863Z,22.21
2018-04-18T10:36:45.480Z,22.26
2018-04-18T10:39:13.123Z,22.31
2018-04-18T10:41:40.846Z,22.37
2018-04-18T10:44:08.481Z,22.39
2018-04-18T10:46:36.167Z,22.40
2018-04-18T10:49:03.821Z,22.41
2018-04-18T10:51:31.503Z,22.42
2018-04-18T10:53:59.167Z,22.44
2018-04-18T10:56:26.827Z,22.48
2018-04-18T10:58:54.458Z,22.53
2018-04-18T11:01:22.079Z,22.57
2018-04-18T11:03:49.822Z,22.61
2018-04-18T11:06:17.478Z,22.66
2018-04-18T11:08:45.114Z,22.72
2018-04-18T11:11:12.746Z,22.77
2018-04-18T11:13:40.387Z,22.84
2018-04-18T11:16:07.999Z,22.90
2018-04-18T11:18:35.619Z,22.94
2018-04-18T11:21:03.264Z,22.95
2018-04-18T11:23:30.883Z,22.97
2018-04-18T11:25:58.575Z,23.01
2018-04-18T11:28:26.191Z,23.05
2018-04-18T11:30:53.836Z,23.08
2018-04-18T11:33:21.462Z,23.13
2018-04-18T11:35:49.104Z,23.18
2018-04-18T11:38:16.728Z,23.23
2018-04-18T11:40:44.370Z,23.26
2018-04-18T11:43:12.011Z,23.28
2018-04-18T11:45:39.658Z,23.30
2018-04-18T11:48:07.335Z,23.36
2018-04-18T11:50:35.711Z,23.40
2018-04-18T11:53:03.378Z,23.44
2018-04-18T11:55:31.033Z,23.46
2018-04-18T11:57:58.655Z,23.47
2018-04-18T12:00:26.363Z,23.53
2018-04-18T12:02:54.031Z,23.55
2018-04-18T12:05:21.676Z,23.57
2018-04-18T12:07:49.447Z,23.59
2018-04-18T12:10:17.088Z,23.61
2018-04-18T12:12:44.720Z,23.64
2018-04-18T12:15:12.450Z,23.69
2018-04-18T12:17:40.077Z,23.76
2018-04-18T12:20:07.732Z,23.77
2018-04-18T12:22:35.370Z,23.77
2018-04-18T12:25:03.098Z,23.80
2018-04-18T12:27:30.721Z,23.82
2018-04-18T12:29:58.415Z,23.85
2018-04-18T12:32:26.036Z,23.89
2018-04-18T12:34:53.649Z,23.92
2018-04-18T12:37:21.397Z,23.96
2018-04-18T12:39:49.015Z,24.00
2018-04-18T12:42:16.730Z,24.04
2018-04-18T12:44:44.341Z,24.08
2018-04-18T12:47:11.979Z,24.10
2018-04-18T12:49:39.602Z,24.11
2018-04-18T12:52:07.243Z,24.11
2018-04-18T12:54:34.860Z,24.15
2018-04-18T12:57:02.504Z,24.15
2018-04-18T12:59:30.162Z,24.15
2018-04-18T13:01:57.829Z,24.17
2018-04-18T13:04:25.442Z,24.20
2018-04-18T13:06:53.077Z,24.24
2018-04-18T13:09:20.696Z,24.25
2018-04-18T13:11:48.369Z,24.27
2018-04-18T13:14:15.998Z,24.28
2018-04-18T13:16:43.703Z,24.28
2018-04-18T13:19:11.359Z,24.29
2018-04-18T13:21:38.999Z,24.29
2018-04-18T13:24:06.617Z,24.29
2018-04-18T13:26:34.352Z,24.25
2018-04-18T13:29:02.017Z,24.24
2018-04-18T13:31:29.668Z,24.24
2018-04-18T13:33:57.290Z,24.25
2018-04-18T13:36:24.990Z,24.29
2018-04-18T13:38:52.658Z,24.33
2018-04-18T13:41:20.323Z,24.39
2018-04-18T13:43:47.992Z,24.43
2018-04-18T13:46:15.613Z,24.47
2018-04-18T13:48:43.305Z,24.48
2018-04-18T13:51:10.927Z,24.51
2018-04-18T13:53:38.759Z,24.52
2018-04-18T13:56:06.403Z,24.50
2018-04-18T13:58:34.039Z,24.50
2018-04-18T14:01:01.728Z,24.49
2018-04-18T14:03:29.371Z,24.48
2018-04-18T14:05:56.983Z,24.49
2018-04-18T14:08:24.717Z,24.49
2018-04-18T14:10:52.335Z,24.51
2018-04-18T14:13:19.970Z,24.53
2018-04-18T14:15:47.583Z,24.54
2018-04-18T14:18:15.265Z,24.54
2018-04-18T14:20:42.884Z,24.55
2018-04-18T14:23:10.527Z,24.57
2018-04-18T14:25:38.147Z,24.58
2018-04-18T14:28:05.795Z,24.60
2018-04-18T14:30:33.418Z,24.59
2018-04-18T14:33:01.059Z,24.59
2018-04-18T14:35:28.685Z,24.58
2018-04-18T14:37:57.058Z,24.59
2018-04-18T14:40:24.738Z,24.59
2018-04-18T14:42:52.383Z,24.62
2018-04-18T14:45:20.201Z,24.65
2018-04-18T14:47:47.839Z,24.67
2018-04-18T14:50:15.491Z,24.66
2018-04-18T14:52:43.150Z,24.65
2018-04-18T14:55:10.823Z,24.64
2018-04-18T14:57:38.475Z,24.66
2018-04-18T15:00:06.096Z,24.65
2018-04-18T15:02:33.812Z,24.64
2018-04-18T15:05:01.461Z,24.64
2018-04-18T15:07:29.131Z,24.64
2018-04-18T15:09:56.796Z,24.63
2018-04-18T15:12:24.454Z,24.63
2018-04-18T15:14:52.096Z,24.64
2018-04-18T15:17:19.787Z,24.63
2018-04-18T15:19:47.423Z,24.62
2018-04-18T15:22:15.046Z,24.63
2018-04-18T15:24:42.682Z,24.63
2018-04-18T15:27:10.322Z,24.62
2018-04-18T15:29:37.959Z,24.61
2018-04-18T15:32:05.660Z,24.59
2018-04-18T15:34:33.307Z,24.57
2018-04-18T15:37:00.923Z,24.56
2018-04-18T15:39:28.568Z,24.57
2018-04-18T15:41:56.211Z,24.57
2018-04-18T15:44:23.859Z,24.57
2018-04-18T15:46:51.474Z,24.57
2018-04-18T15:49:19.199Z,24.58
2018-04-18T15:51:46.854Z,24.55
2018-04-18T15:54:14.525Z,24.53
2018-04-18T15:56:42.137Z,24.49
2018-04-18T15:59:09.775Z,24.46
2018-04-18T16:01:37.502Z,24.43
2018-04-18T16:04:05.151Z,24.41
2018-04-18T16:06:32.770Z,24.37
2018-04-18T16:09:00.396Z,24.33
2018-04-18T16:11:28.031Z,24.31
2018-04-18T16:13:55.699Z,24.29
2018-04-18T16:16:23.383Z,24.27
2018-04-18T16:18:50.998Z,24.25
2018-04-18T16:21:18.708Z,24.21
2018-04-18T16:23:46.320Z,24.16
2018-04-18T16:26:13.955Z,24.11
2018-04-18T16:28:41.570Z,24.07
2018-04-18T16:31:09.241Z,24.03
2018-04-18T16:33:37.428Z,24.01
2018-04-18T16:36:05.088Z,23.96
2018-04-18T16:38:32.693Z,23.94
2018-04-18T16:41:00.335Z,23.99
2018-04-18T16:43:27.960Z,24.07
2018-04-18T16:45:55.599Z,24.19
2018-04-18T16:48:23.228Z,24.31
2018-04-18T16:50:50.959Z,24.40
2018-04-18T16:53:18.627Z,24.46
2018-04-18T16:55:46.255Z,24.49
2018-04-18T16:58:13.867Z,24.51
2018-04-18T17:00:41.502Z,24.49
2018-04-18T17:03:09.171Z,24.51
2018-04-18T17:05:36.816Z,24.51
2018-04-18T17:08:04.441Z,24.50
2018-04-18T17:10:32.088Z,24.48
2018-04-18T17:12:59.704Z,24.43
2018-04-18T17:15:27.383Z,24.40
2018-04-18T17:17:55.007Z,24.32
2018-04-18T17:20:22.703Z,24.19
2018-04-18T17:22:50.367Z,24.05
2018-04-18T17:25:17.992Z,23.90
2018-04-18T17:27:45.640Z,23.73
2018-04-18T17:30:13.255Z,23.57
2018-04-18T17:32:40.891Z,23.43
2018-04-18T17:35:08.511Z,23.28
2018-04-18T17:37:36.160Z,23.15
2018-04-18T17:40:03.789Z,22.99
2018-04-18T17:42:31.431Z,22.86
2018-04-18T17:44:59.052Z,22.73
2018-04-18T17:47:26.778Z,22.61
2018-04-18T17:49:55.061Z,22.49
2018-04-18T17:52:22.699Z,22.38
2018-04-18T17:54:50.316Z,22.26
2018-04-18T17:57:17.959Z,22.15
2018-04-18T17:59:45.611Z,22.04
2018-04-18T18:02:13.367Z,21.93
2018-04-18T18:04:40.975Z,21.81
2018-04-18T18:07:08.704Z,21.71
2018-04-18T18:09:36.365Z,21.61
2018-04-18T18:12:04.007Z,21.50
2018-04-18T18:14:31.627Z,21.39
2018-04-18T18:16:59.349Z,21.28
2018-04-18T18:19:26.964Z,21.18
2018-04-18T18:21:54.668Z,21.08
2018-04-18T18:24:22.282Z,21.00
2018-04-18T18:26:49.923Z,20.91
2018-04-18T18:29:17.535Z,20.83
2018-04-18T18:31:45.160Z,20.75
2018-04-18T18:34:12.814Z,20.66
2018-04-18T18:36:40.443Z,20.56
2018-04-18T18:39:08.116Z,20.47
2018-04-18T18:41:35.730Z,20.39
2018-04-18T18:44:03.431Z,20.30
2018-04-18T18:46:31.095Z,20.21
2018-04-18T18:48:58.735Z,20.13
2018-04-18T18:51:26.351Z,20.03
2018-04-18T18:53:53.995Z,19.95
2018-04-18T18:56:21.650Z,19.87
2018-04-18T18:58:49.287Z,19.78
2018-04-18T19:01:16.902Z,19.69
2018-04-18T19:03:44.544Z,19.62
2018-04-18T19:06:12.191Z,19.53
2018-04-18T19:08:39.835Z,19.47
2018-04-18T19:11:07.456Z,19.40
2018-04-18T19:13:35.188Z,19.33
2018-04-18T19:16:02.807Z,19.27
2018-04-18T19:18:30.460Z,19.22
2018-04-18T19:20:58.089Z,19.15
2018-04-18T19:23:25.723Z,19.09
2018-04-18T19:25:53.335Z,19.03
2018-04-18T19:28:21.026Z,18.97
2018-04-18T19:30:49.593Z,18.90
2018-04-18T19:33:17.207Z,18.83
2018-04-18T19:35:44.845Z,18.76
2018-04-18T19:38:12.718Z,18.71
2018-04-18T19:40:40.383Z,18.65
2018-04-18T19:43:08.011Z,18.59
2018-04-18T19:45:35.714Z,18.51
2018-04-18T19:48:03.374Z,18.44
2018-04-18T19:50:31.039Z,18.38
2018-04-18T19:52:58.655Z,18.31
2018-04-18T19:55:26.303Z,18.24
2018-04-18T19:57:53.922Z,18.17
2018-04-18T20:00:21.573Z,18.10
2018-04-18T20:02:49.190Z,18.02
2018-04-18T20:05:16.845Z,17.96
2018-04-18T20:07:44.504Z,17.90
2018-04-18T20:10:12.129Z,17.84
2018-04-18T20:12:39.751Z,17.77
2018-04-18T20:15:10.182Z,17.68
2018-04-18T20:17:37.794Z,17.59
2018-04-18T20:20:05.432Z,17.51
2018-04-18T20:22:33.059Z,17.45
2018-04-18T20:25:00.707Z,17.40
2018-04-18T20:27:28.327Z,17.36
2018-04-18T20:29:55.968Z,17.32
2018-04-18T20:32:23.588Z,17.27
2018-04-18T20:34:51.418Z,17.23
2018-04-18T20:37:19.099Z,17.17
2018-04-18T20:39:46.847Z,17.12
2018-04-18T20:42:14.477Z,17.06
2018-04-18T20:44:42.271Z,17.01
2018-04-18T20:47:09.965Z,16.96
2018-04-18T20:49:37.627Z,16.92
2018-04-18T20:52:05.263Z,16.88
2018-04-18T20:54:32.874Z,16.83
2018-04-18T20:57:00.511Z,16.78
2018-04-18T20:59:28.130Z,16.74
2018-04-18T21:01:55.810Z,16.69
2018-04-18T21:04:23.470Z,16.65
2018-04-18T21:06:51.106Z,16.59
2018-04-18T21:09:18.727Z,16.53
2018-04-18T21:11:46.363Z,16.47
2018-04-18T21:14:14.011Z,16.40
2018-04-18T21:16:41.648Z,16.35
2018-04-18T21:19:09.276Z,16.30
2018-04-18T21:21:36.918Z,16.25
2018-04-18T21:24:04.535Z,16.20
2018-04-18T21:26:32.177Z,16.16
2018-04-18T21:28:59.791Z,16.11
2018-04-18T21:31:27.516Z,16.05
2018-04-18T21:33:55.119Z,16.00
2018-04-18T21:36:22.754Z,15.94
2018-04-18T21:38:50.372Z,15.90
2018-04-18T21:41:18.010Z,15.85
2018-04-18T21:43:45.632Z,15.80
2018-04-18T21:46:13.331Z,15.75
2018-04-18T21:48:40.956Z,15.71
2018-04-18T21:51:08.650Z,15.68
2018-04-18T21:53:36.315Z,15.66
2018-04-18T21:56:03.979Z,15.64
2018-04-18T21:58:31.613Z,15.60
2018-04-18T22:00:59.227Z,15.56
2018-04-18T22:03:26.962Z,15.52
2018-04-18T22:05:54.575Z,15.48
2018-04-18T22:08:22.291Z,15.41
2018-04-18T22:10:49.907Z,15.34
2018-04-18T22:13:17.548Z,15.29
2018-04-18T22:15:45.174Z,15.24
2018-04-18T22:18:12.814Z,15.19
2018-04-18T22:20:40.426Z,15.15
2018-04-18T22:23:08.068Z,15.12
2018-04-18T22:25:35.691Z,15.10
2018-04-18T22:28:03.391Z,15.07
2018-04-18T22:30:31.011Z,15.03
2018-04-18T22:32:58.647Z,14.99
2018-04-18T22:35:26.370Z,14.96
2018-04-18T22:37:54.030Z,14.93
2018-04-18T22:40:21.693Z,14.91
2018-04-18T22:42:49.364Z,14.89
2018-04-18T22:45:17.030Z,14.86
2018-04-18T22:47:44.671Z,14.83
2018-04-18T22:50:12.290Z,14.80
2018-04-18T22:52:40.021Z,14.75
2018-04-18T22:55:07.642Z,14.72
2018-04-18T22:57:35.280Z,14.68
2018-04-18T23:00:02.901Z,14.65
2018-04-18T23:02:30.539Z,14.61
2018-04-18T23:04:58.227Z,14.57
2018-04-18T23:07:25.844Z,14.53
2018-04-18T23:09:53.547Z,14.49
2018-04-18T23:12:21.218Z,14.43
2018-04-18T23:14:48.855Z,14.37
2018-04-18T23:17:16.534Z,14.34
2018-04-18T23:19:44.179Z,14.31
2018-04-18T23:22:11.803Z,14.29
2018-04-18T23:24:39.442Z,14.26
2018-04-18T23:27:07.068Z,14.23
2018-04-18T23:29:34.751Z,14.21
2018-04-18T23:32:02.368Z,14.19
2018-04-18T23:34:30.063Z,14.17
2018-04-18T23:36:57.687Z,14.14
2018-04-18T23:39:25.322Z,14.12
2018-04-18T23:41:52.935Z,14.09
2018-04-18T23:44:20.586Z,14.08
2018-04-18T23:46:48.207Z,14.05
2018-04-18T23:49:15.942Z,14.02
2018-04-18T23:51:43.559Z,14.01
2018-04-18T23:54:11.274Z,13.99
2018-04-18T23:56:38.930Z,13.98
2018-04-18T23:59:06.566Z,13.96
